Time;durP1;ratioP1;P1;durP2;ratioP2;P2;SDS_P1;SDS_P2;PMS_P1;PMS_P2;Temp;Humidity;BMP_temperature;BMP_pressure;BME280_temperature;BME280_humidity;BME280_pressure;Samples;Min_cycle;Max_cycle;Signal;HPM_P1;HPM_P2
2022/08/04 00:01:57;;;;;;;3.50;2.08;;;27.00;56.80;;;;;;4992603;28;20184;-78
2022/08/04 00:04:33;;;;;;;4.70;2.45;;;27.00;57.50;;;;;;5004780;28;20196;-77
2022/08/04 00:07:08;;;;;;;2.72;1.85;;;26.90;56.90;;;;;;5002871;28;20212;-77
2022/08/04 00:09:44;;;;;;;4.38;2.00;;;27.00;57.00;;;;;;5012737;28;20195;-77
2022/08/04 00:12:15;;;;;;;5.20;2.25;;;26.90;57.10;;;;;;5008726;28;20184;-77
2022/08/04 00:14:50;;;;;;;2.90;1.90;;;26.90;57.20;;;;;;5002982;28;20209;-77
2022/08/04 00:17:24;;;;;;;4.07;2.28;;;26.90;57.30;;;;;;4996555;28;21397;-77
2022/08/04 00:19:56;;;;;;;4.80;2.30;;;26.90;57.50;;;;;;5008116;28;20199;-76
2022/08/04 00:22:28;;;;;;;5.30;2.17;;;26.80;57.60;;;;;;4999437;28;20218;-78
2022/08/04 00:24:58;;;;;;;3.95;2.00;;;26.80;57.60;;;;;;5005895;28;20227;-77
2022/08/04 00:27:29;;;;;;;2.30;1.80;;;26.80;57.70;;;;;;4999089;28;20220;-77
2022/08/04 00:30:00;;;;;;;8.98;3.08;;;26.80;57.80;;;;;;5003858;28;20193;-77
2022/08/04 00:32:28;;;;;;;4.03;2.15;;;26.70;57.80;;;;;;4995881;28;20200;-77
2022/08/04 00:35:02;;;;;;;2.75;2.00;;;26.70;57.90;;;;;;5001200;28;20200;-78
2022/08/04 00:37:32;;;;;;;3.10;1.73;;;26.70;58.00;;;;;;5003229;28;20200;-77
2022/08/04 00:40:03;;;;;;;6.00;2.05;;;26.70;58.10;;;;;;5011208;28;20224;-76
2022/08/04 00:42:42;;;;;;;3.40;1.88;;;26.70;58.20;;;;;;5001259;28;20709;-76
2022/08/04 00:45:57;;;;;;;5.35;2.00;;;26.70;58.40;;;;;;5002018;28;20295;-77
2022/08/04 00:49:02;;;;;;;7.65;2.08;;;26.60;58.50;;;;;;5011547;28;20220;-77
2022/08/04 00:51:43;;;;;;;4.95;2.05;;;26.60;58.50;;;;;;5009263;28;20208;-77
2022/08/04 00:54:23;;;;;;;2.40;1.65;;;26.60;58.60;;;;;;4998675;28;20196;-77
2022/08/04 00:57:19;;;;;;;5.95;2.30;;;26.50;58.70;;;;;;5007868;28;20195;-77
2022/08/04 01:00:08;;;;;;;3.15;2.08;;;26.50;58.90;;;;;;5003307;28;20255;-76
2022/08/04 01:02:52;;;;;;;4.05;2.38;;;26.50;59.00;;;;;;5005341;28;20188;-76
2022/08/04 01:05:29;;;;;;;7.47;2.30;;;26.40;59.00;;;;;;4993560;28;20193;-77
2022/08/04 01:08:35;;;;;;;4.28;2.08;;;26.40;59.10;;;;;;5008452;28;20391;-77
2022/08/04 01:11:13;;;;;;;3.17;1.75;;;26.40;59.30;;;;;;5006871;28;20283;-77
2022/08/04 01:14:00;;;;;;;3.28;1.98;;;26.30;59.20;;;;;;5000144;28;20192;-77
2022/08/04 01:16:31;;;;;;;9.63;2.80;;;26.30;59.30;;;;;;4999242;28;20192;-76
2022/08/04 01:19:05;;;;;;;2.70;2.10;;;26.30;59.40;;;;;;4994946;28;20192;-77
2022/08/04 01:21:58;;;;;;;7.25;2.10;;;26.20;59.50;;;;;;5005619;28;20188;-78
2022/08/04 01:24:46;;;;;;;5.97;1.85;;;26.20;59.70;;;;;;4999164;28;20193;-78
2022/08/04 01:27:27;;;;;;;2.53;1.85;;;26.20;59.80;;;;;;5006171;28;20224;-78
2022/08/04 01:30:01;;;;;;;4.50;2.20;;;26.10;59.80;;;;;;5006067;28;20220;-78
2022/08/04 01:32:36;;;;;;;3.80;1.88;;;26.10;59.90;;;;;;5009296;28;20204;-78
2022/08/04 01:35:11;;;;;;;3.80;2.28;;;26.10;60.00;;;;;;5002586;28;20192;-78
2022/08/04 01:38:00;;;;;;;4.28;2.20;;;26.10;60.10;;;;;;5005092;28;20970;-78
2022/08/04 01:40:29;;;;;;;6.43;1.90;;;26.00;60.30;;;;;;5006315;28;20219;-77
2022/08/04 01:43:00;;;;;;;3.50;2.10;;;26.00;60.50;;;;;;5007967;28;20200;-78
2022/08/04 01:45:33;;;;;;;3.85;2.17;;;25.90;60.50;;;;;;5002378;28;20193;-78
2022/08/04 01:48:04;;;;;;;4.13;2.03;;;25.90;60.70;;;;;;5016822;28;20771;-78
2022/08/04 01:50:36;;;;;;;4.10;2.40;;;25.90;60.90;;;;;;5004254;28;20215;-78
2022/08/04 01:53:05;;;;;;;3.95;2.25;;;25.80;61.10;;;;;;5000420;28;20195;-77
2022/08/04 01:55:34;;;;;;;3.70;2.15;;;25.80;61.20;;;;;;5003333;28;20196;-77
2022/08/04 01:58:24;;;;;;;4.15;1.95;;;25.80;61.40;;;;;;5007981;28;20249;-77
2022/08/04 02:01:01;;;;;;;4.20;2.33;;;25.80;61.60;;;;;;5007002;28;20661;-77
2022/08/04 02:03:38;;;;;;;5.03;2.20;;;25.80;61.90;;;;;;5002375;28;20643;-77
2022/08/04 02:06:32;;;;;;;6.03;2.40;;;25.70;61.90;;;;;;4997026;28;20212;-77
2022/08/04 02:09:10;;;;;;;5.50;2.25;;;25.70;62.20;;;;;;5012141;28;20615;-78
2022/08/04 02:11:42;;;;;;;7.30;2.35;;;25.60;62.30;;;;;;5000738;28;20192;-77
2022/08/04 02:17:11;;;;;;;3.97;2.40;;;25.60;62.70;;;;;;5010077;28;20192;-77
2022/08/04 02:19:53;;;;;;;4.40;2.40;;;25.60;62.80;;;;;;5012713;28;20196;-78
2022/08/04 02:22:25;;;;;;;7.10;2.22;;;25.60;63.00;;;;;;5010085;28;20188;-79
2022/08/04 02:25:01;;;;;;;5.22;2.35;;;25.50;62.90;;;;;;5015577;28;21694;-79
2022/08/04 02:27:52;;;;;;;6.35;2.03;;;25.50;63.00;;;;;;4992802;28;20215;-77
2022/08/04 02:30:33;;;;;;;4.25;2.50;;;25.50;63.10;;;;;;5012502;28;20189;-76
2022/08/04 02:33:07;;;;;;;5.10;2.10;;;25.50;63.20;;;;;;5007103;28;20199;-76
2022/08/04 02:35:38;;;;;;;5.10;2.20;;;25.50;63.30;;;;;;5009237;28;20191;-76
2022/08/04 02:38:19;;;;;;;3.65;2.13;;;25.50;63.40;;;;;;5006640;28;20844;-76
2022/08/04 02:40:55;;;;;;;3.10;2.10;;;25.40;63.50;;;;;;4990514;28;20192;-77
2022/08/04 02:43:28;;;;;;;4.55;2.45;;;25.40;63.60;;;;;;4998822;28;20192;-78
2022/08/04 02:46:18;;;;;;;5.95;2.53;;;25.40;63.60;;;;;;5017271;28;20196;-77
2022/08/04 02:48:50;;;;;;;5.03;2.20;;;25.40;63.80;;;;;;5006159;28;20220;-76
2022/08/04 02:51:22;;;;;;;7.40;2.40;;;25.40;64.10;;;;;;5005515;28;20202;-77
2022/08/04 02:53:55;;;;;;;3.97;2.25;;;25.40;64.30;;;;;;5008038;28;20665;-76
2022/08/04 02:56:24;;;;;;;4.43;2.20;;;25.30;64.50;;;;;;5002567;28;20189;-75
2022/08/04 02:58:58;;;;;;;9.60;3.05;;;25.30;64.60;;;;;;5003787;28;20415;-77
2022/08/04 03:01:26;;;;;;;3.13;2.08;;;25.20;64.60;;;;;;4999641;28;20611;-77
2022/08/04 03:04:27;;;;;;;8.10;2.30;;;25.20;64.70;;;;;;5008190;28;20490;-78
2022/08/04 03:07:34;;;;;;;3.63;2.25;;;25.20;64.90;;;;;;5003456;28;20207;-77
2022/08/04 03:10:31;;;;;;;6.70;2.40;;;25.20;64.90;;;;;;5005151;28;20223;-75
2022/08/04 03:13:43;;;;;;;5.15;2.38;;;25.20;64.80;;;;;;4968308;28;20196;-77
2022/08/04 03:16:39;;;;;;;3.72;2.05;;;25.20;64.90;;;;;;5005111;28;20199;-76
2022/08/04 03:19:38;;;;;;;5.32;2.35;;;25.20;65.00;;;;;;5003503;28;20189;-76
2022/08/04 03:22:31;;;;;;;10.05;2.35;;;25.20;65.20;;;;;;5016092;28;20195;-77
2022/08/04 03:25:41;;;;;;;6.88;2.33;;;25.10;65.20;;;;;;5007212;28;20197;-78
2022/08/04 03:28:59;;;;;;;5.50;2.60;;;25.10;65.30;;;;;;4996641;28;20225;-78
2022/08/04 03:31:56;;;;;;;4.07;2.45;;;25.10;65.50;;;;;;5002695;28;20593;-78
2022/08/04 03:34:44;;;;;;;6.05;2.75;;;25.10;65.50;;;;;;5004918;28;20654;-79
2022/08/04 03:37:31;;;;;;;5.53;2.63;;;25.10;65.60;;;;;;4998104;28;20191;-77
2022/08/04 03:40:30;;;;;;;6.82;2.60;;;25.00;65.50;;;;;;5005837;28;20315;-78
2022/08/04 03:43:32;;;;;;;5.50;3.05;;;25.00;65.60;;;;;;4994703;28;20220;-78
2022/08/04 03:47:00;;;;;;;6.40;3.20;;;25.00;65.50;;;;;;5000640;28;20219;-77
2022/08/04 03:50:12;;;;;;;8.38;3.28;;;25.00;65.50;;;;;;4998754;28;20579;-78
2022/08/04 03:53:07;;;;;;;4.45;2.88;;;25.00;65.50;;;;;;5001397;28;20215;-78
2022/08/04 03:56:15;;;;;;;6.13;2.63;;;25.00;65.60;;;;;;5010387;28;20199;-78
2022/08/04 03:58:59;;;;;;;8.73;3.03;;;25.00;65.50;;;;;;5003106;28;20192;-78
2022/08/04 04:02:04;;;;;;;8.23;3.97;;;25.00;65.50;;;;;;5009868;28;20198;-78
2022/08/04 04:04:56;;;;;;;8.57;3.17;;;25.00;65.40;;;;;;4995159;28;20292;-77
2022/08/04 04:08:12;;;;;;;9.00;3.47;;;25.00;65.30;;;;;;4993474;28;20943;-78
2022/08/04 04:11:23;;;;;;;6.03;3.03;;;25.00;65.30;;;;;;4991410;28;20203;-78
2022/08/04 04:14:23;;;;;;;7.75;3.25;;;25.00;65.50;;;;;;4990926;28;20202;-78
2022/08/04 04:17:27;;;;;;;7.03;3.05;;;25.00;65.60;;;;;;5010269;28;20205;-78
2022/08/04 04:20:13;;;;;;;10.20;3.63;;;25.00;65.70;;;;;;4990998;28;20192;-78
2022/08/04 04:23:00;;;;;;;9.02;3.70;;;25.00;65.60;;;;;;5004858;28;20188;-80
2022/08/04 04:25:39;;;;;;;9.65;3.22;;;25.00;65.70;;;;;;5016615;28;20684;-78
2022/08/04 04:28:57;;;;;;;12.85;3.65;;;25.00;65.70;;;;;;5006304;28;20192;-78
2022/08/04 04:31:46;;;;;;;5.93;2.90;;;25.00;65.80;;;;;;4982434;28;20199;-78
2022/08/04 04:34:30;;;;;;;7.32;2.60;;;24.90;65.70;;;;;;5011855;28;20199;-78
2022/08/04 04:37:16;;;;;;;8.48;3.10;;;25.00;65.80;;;;;;5006594;28;20192;-78
2022/08/04 04:39:59;;;;;;;6.43;2.92;;;24.90;65.70;;;;;;4997669;28;20224;-76
2022/08/04 04:42:43;;;;;;;9.15;3.22;;;24.90;65.90;;;;;;5010956;28;20198;-79
2022/08/04 04:45:28;;;;;;;5.63;2.97;;;25.00;66.00;;;;;;5003183;28;20189;-78
2022/08/04 04:48:04;;;;;;;5.85;3.22;;;24.90;66.10;;;;;;5006284;28;20196;-78
2022/08/04 04:50:49;;;;;;;5.93;3.05;;;25.00;66.10;;;;;;4999391;28;20211;-78
2022/08/04 04:53:27;;;;;;;5.75;3.28;;;25.00;66.20;;;;;;4996676;28;20200;-78
2022/08/04 04:56:03;;;;;;;9.50;3.35;;;25.00;66.30;;;;;;5006742;28;20901;-78
2022/08/04 04:58:34;;;;;;;6.30;3.22;;;25.00;66.60;;;;;;4999678;28;20861;-78
2022/08/04 05:01:39;;;;;;;5.10;2.97;;;25.00;66.70;;;;;;5008322;28;20204;-78
2022/08/04 05:04:25;;;;;;;5.95;2.88;;;25.00;66.80;;;;;;4955370;28;20191;-77
2022/08/04 05:07:10;;;;;;;4.32;2.42;;;25.00;67.00;;;;;;5006495;28;20669;-78
2022/08/04 05:09:52;;;;;;;6.50;2.75;;;25.00;67.10;;;;;;4995555;28;20386;-78
2022/08/04 05:12:35;;;;;;;7.03;2.90;;;25.10;66.90;;;;;;5006484;28;20654;-78
2022/08/04 05:15:27;;;;;;;8.73;3.72;;;25.10;66.80;;;;;;5005494;28;20196;-78
2022/08/04 05:18:00;;;;;;;6.82;3.45;;;25.20;66.70;;;;;;5005889;28;20184;-78
2022/08/04 05:20:34;;;;;;;7.40;3.40;;;25.20;66.60;;;;;;5005367;28;20187;-78
2022/08/04 05:23:09;;;;;;;7.20;3.38;;;25.20;66.60;;;;;;5005879;28;20841;-79
2022/08/04 05:25:43;;;;;;;7.07;2.95;;;25.30;66.60;;;;;;5003459;28;20200;-76
2022/08/04 05:28:32;;;;;;;4.85;2.88;;;25.40;66.50;;;;;;5005187;28;20199;-78
2022/08/04 05:31:04;;;;;;;8.60;3.95;;;25.40;66.50;;;;;;5009663;28;20217;-79
2022/08/04 05:33:39;;;;;;;9.93;3.95;;;25.50;66.40;;;;;;5003660;28;20188;-79
2022/08/04 05:36:15;;;;;;;7.18;4.07;;;25.50;66.30;;;;;;5007608;28;20188;-78
2022/08/04 05:39:02;;;;;;;9.57;3.95;;;25.60;66.30;;;;;;5008208;28;20272;-77
2022/08/04 05:41:31;;;;;;;8.73;3.20;;;25.60;66.10;;;;;;5023121;28;20198;-78
2022/08/04 05:44:16;;;;;;;6.80;3.40;;;25.70;66.20;;;;;;5025489;28;20241;-78
2022/08/04 05:46:48;;;;;;;5.25;3.20;;;25.80;66.10;;;;;;5026761;28;20200;-79
2022/08/04 05:49:24;;;;;;;8.27;3.33;;;25.80;65.90;;;;;;5021559;28;20786;-76
2022/08/04 05:51:56;;;;;;;4.85;2.88;;;25.90;65.70;;;;;;5025952;28;20194;-78
2022/08/04 05:54:25;;;;;;;6.10;3.10;;;25.90;65.70;;;;;;5026073;28;20462;-78
2022/08/04 05:56:54;;;;;;;3.45;2.58;;;26.10;65.60;;;;;;5026543;28;20820;-78
2022/08/04 05:59:24;;;;;;;9.88;2.80;;;26.10;65.50;;;;;;5025940;28;20227;-78
2022/08/04 06:01:56;;;;;;;5.13;2.47;;;26.10;65.20;;;;;;5037413;28;20207;-78
2022/08/04 06:04:31;;;;;;;4.25;2.58;;;26.20;65.00;;;;;;5037455;28;20198;-77
2022/08/04 06:06:59;;;;;;;6.57;2.45;;;26.30;64.90;;;;;;5035279;28;20195;-78
2022/08/04 06:09:28;;;;;;;6.13;2.72;;;26.30;64.80;;;;;;5024090;28;20214;-77
2022/08/04 06:12:00;;;;;;;3.63;2.00;;;26.40;64.50;;;;;;5027837;28;20192;-77
2022/08/04 06:14:36;;;;;;;4.25;2.63;;;26.50;64.40;;;;;;5029922;28;20269;-77
2022/08/04 06:17:07;;;;;;;5.18;2.42;;;26.50;64.30;;;;;;5025083;28;20295;-76
2022/08/04 06:20:00;;;;;;;6.43;2.15;;;26.60;64.20;;;;;;5032653;28;20195;-77
2022/08/04 06:22:52;;;;;;;2.58;1.67;;;26.70;64.00;;;;;;5014758;28;20203;-76
2022/08/04 06:25:24;;;;;;;5.43;1.70;;;26.80;63.80;;;;;;5022739;28;20194;-77
2022/08/04 06:27:54;;;;;;;3.20;1.75;;;26.90;63.30;;;;;;5035614;28;20191;-77
2022/08/04 06:30:25;;;;;;;6.70;2.08;;;27.00;63.20;;;;;;5026085;28;20235;-77
2022/08/04 06:32:56;;;;;;;4.75;2.17;;;27.10;62.80;;;;;;5032017;28;20211;-77
2022/08/04 06:35:34;;;;;;;3.35;2.03;;;27.20;62.60;;;;;;5020782;28;20182;-78
2022/08/04 06:38:03;;;;;;;5.75;2.00;;;27.20;62.00;;;;;;5027428;28;20187;-76
2022/08/04 06:40:36;;;;;;;7.28;1.92;;;27.30;62.10;;;;;;5007182;28;20235;-76
2022/08/04 06:43:07;;;;;;;6.22;2.10;;;27.40;62.10;;;;;;5002194;28;20204;-76
2022/08/04 06:45:40;;;;;;;2.40;1.60;;;27.50;61.70;;;;;;5002914;28;20197;-76
2022/08/04 06:48:12;;;;;;;4.68;1.67;;;27.60;61.60;;;;;;5010429;28;20258;-77
2022/08/04 06:50:44;;;;;;;2.83;1.73;;;27.70;61.30;;;;;;5011837;28;20286;-78
2022/08/04 06:53:33;;;;;;;3.08;1.85;;;27.70;61.20;;;;;;5016240;28;20188;-77
2022/08/04 06:56:01;;;;;;;5.53;1.70;;;27.80;61.10;;;;;;5002966;28;20196;-77
2022/08/04 06:58:33;;;;;;;2.92;2.00;;;27.90;60.90;;;;;;5014822;28;20205;-77
2022/08/04 07:01:02;;;;;;;6.03;1.83;;;28.00;60.20;;;;;;5013504;28;20187;-76
2022/08/04 07:03:31;;;;;;;4.80;1.55;;;28.00;59.90;;;;;;5016876;28;20203;-77
2022/08/04 07:06:02;;;;;;;3.38;1.83;;;28.10;59.10;;;;;;5004002;28;20203;-77
2022/08/04 07:08:35;;;;;;;5.80;1.60;;;28.20;59.20;;;;;;5002175;28;20193;-77
2022/08/04 07:11:05;;;;;;;4.07;1.45;;;28.20;58.90;;;;;;5005097;28;20721;-76
2022/08/04 07:13:37;;;;;;;3.05;1.50;;;28.30;58.80;;;;;;5004455;28;20212;-76
2022/08/04 07:16:14;;;;;;;4.32;1.60;;;28.30;58.50;;;;;;5001188;28;20270;-78
2022/08/04 07:18:42;;;;;;;2.38;1.40;;;28.40;58.50;;;;;;5006590;28;20192;-79
2022/08/04 07:21:20;;;;;;;2.92;1.40;;;28.50;58.40;;;;;;5005609;28;20835;-76
2022/08/04 07:23:49;;;;;;;3.25;1.55;;;28.50;57.10;;;;;;5003330;28;20201;-78
2022/08/04 07:26:18;;;;;;;2.63;1.60;;;28.60;57.50;;;;;;5001269;28;20641;-78
2022/08/04 07:28:47;;;;;;;5.85;1.55;;;28.60;57.60;;;;;;5005111;28;20203;-77
2022/08/04 07:31:17;;;;;;;7.93;1.67;;;28.70;57.70;;;;;;5004969;28;20239;-76
2022/08/04 07:34:03;;;;;;;6.45;1.80;;;28.70;57.40;;;;;;5002857;28;20191;-79
2022/08/04 07:36:52;;;;;;;6.80;1.75;;;28.80;57.40;;;;;;5002910;28;20254;-78
2022/08/04 07:39:25;;;;;;;3.00;1.73;;;28.80;57.40;;;;;;5008665;28;20228;-78
2022/08/04 07:41:57;;;;;;;4.13;1.80;;;28.90;57.30;;;;;;5005871;28;20215;-76
2022/08/04 07:44:26;;;;;;;3.53;1.65;;;28.90;57.10;;;;;;5006498;28;20629;-78
2022/08/04 07:46:55;;;;;;;6.80;1.80;;;29.00;57.20;;;;;;4997469;28;20201;-78
2022/08/04 07:49:25;;;;;;;4.47;1.50;;;29.10;57.30;;;;;;4997859;28;20207;-78
2022/08/04 07:52:16;;;;;;;2.85;2.17;;;29.10;57.10;;;;;;5012030;28;20291;-78
2022/08/04 07:54:45;;;;;;;5.00;1.83;;;29.10;56.30;;;;;;5000930;28;20197;-78
2022/08/04 07:57:13;;;;;;;4.22;1.77;;;29.20;56.00;;;;;;4999809;28;21008;-77
2022/08/04 08:00:02;;;;;;;5.53;1.50;;;29.20;56.20;;;;;;5010158;28;20227;-79
2022/08/04 08:02:33;;;;;;;2.55;1.67;;;29.30;56.40;;;;;;5003677;28;20196;-77
2022/08/04 08:05:02;;;;;;;4.60;1.95;;;29.30;56.50;;;;;;5003520;28;20204;-78
2022/08/04 08:07:32;;;;;;;5.25;1.90;;;29.30;55.50;;;;;;5002359;28;20200;-78
2022/08/04 08:10:01;;;;;;;4.60;1.92;;;29.30;55.60;;;;;;5012684;28;20803;-78
2022/08/04 08:12:30;;;;;;;2.45;1.73;;;29.30;55.80;;;;;;5005766;28;20223;-77
2022/08/04 08:15:19;;;;;;;2.80;2.00;;;29.40;55.60;;;;;;5005935;28;20211;-79
2022/08/04 08:17:47;;;;;;;3.00;1.60;;;29.40;55.70;;;;;;5006631;28;20199;-78
2022/08/04 08:20:32;;;;;;;3.60;1.83;;;29.50;55.70;;;;;;5010374;28;20840;-78
2022/08/04 08:23:03;;;;;;;4.13;1.50;;;29.50;55.70;;;;;;5006382;28;20207;-76
2022/08/04 08:25:33;;;;;;;2.20;1.60;;;29.60;55.30;;;;;;5004118;28;20196;-77
2022/08/04 08:28:03;;;;;;;2.28;1.60;;;29.60;55.30;;;;;;5004175;28;20196;-78
2022/08/04 08:30:33;;;;;;;2.58;1.58;;;29.70;55.10;;;;;;4994075;28;20199;-79
2022/08/04 08:33:05;;;;;;;2.47;1.70;;;29.70;54.80;;;;;;5005705;28;20258;-78
2022/08/04 08:35:42;;;;;;;6.35;1.90;;;29.80;54.90;;;;;;5008100;28;20208;-79
2022/08/04 08:38:33;;;;;;;2.33;1.73;;;29.70;54.90;;;;;;5004639;28;20246;-78
2022/08/04 08:41:32;;;;;;;2.60;1.77;;;29.80;54.60;;;;;;5008660;28;20210;-78
2022/08/04 08:44:23;;;;;;;4.40;1.73;;;29.90;54.80;;;;;;5002658;28;20200;-78
2022/08/04 08:47:18;;;;;;;4.25;1.70;;;29.90;54.80;;;;;;5005043;28;20195;-77
2022/08/04 08:50:10;;;;;;;4.15;1.60;;;29.90;54.30;;;;;;5012241;28;20806;-76
2022/08/04 08:52:59;;;;;;;2.22;1.45;;;29.90;53.70;;;;;;5004382;28;20566;-77
2022/08/04 08:55:42;;;;;;;2.60;1.60;;;29.90;53.80;;;;;;5016813;28;20191;-78
2022/08/04 08:58:38;;;;;;;4.25;1.85;;;30.00;54.00;;;;;;4999549;28;20200;-78
2022/08/04 09:01:31;;;;;;;3.30;1.63;;;30.10;53.90;;;;;;5004408;28;20196;-77
2022/08/04 09:04:37;;;;;;;1.52;1.40;;;30.10;54.00;;;;;;4988732;28;20200;-78
2022/08/04 09:07:28;;;;;;;3.97;1.88;;;30.20;53.80;;;;;;4994696;28;20206;-77
2022/08/04 09:10:06;;;;;;;3.08;1.55;;;30.20;53.70;;;;;;5002347;28;20192;-77
2022/08/04 09:12:45;;;;;;;3.78;1.77;;;30.30;53.50;;;;;;5002617;28;20295;-75
2022/08/04 09:15:15;;;;;;;2.53;1.60;;;30.40;53.60;;;;;;5008145;28;20211;-77
2022/08/04 09:17:50;;;;;;;3.38;1.70;;;30.40;53.70;;;;;;4996769;28;20192;-78
2022/08/04 09:20:28;;;;;;;6.65;2.00;;;30.40;53.60;;;;;;5003644;28;20203;-76
2022/08/04 09:23:08;;;;;;;5.30;1.67;;;30.40;52.90;;;;;;5005581;28;20184;-77
2022/08/04 09:25:46;;;;;;;2.85;1.80;;;30.50;53.10;;;;;;5012315;28;20192;-76
2022/08/04 09:28:22;;;;;;;2.65;1.85;;;30.50;53.10;;;;;;5001950;28;20642;-76
2022/08/04 09:31:14;;;;;;;3.35;1.73;;;30.60;53.00;;;;;;5005036;28;20196;-77
2022/08/04 09:33:53;;;;;;;2.15;1.25;;;30.60;52.70;;;;;;4992045;28;20195;-77
2022/08/04 09:36:32;;;;;;;2.53;1.50;;;30.70;52.40;;;;;;5004561;28;20203;-76
2022/08/04 09:39:10;;;;;;;2.35;1.73;;;30.70;52.20;;;;;;4999794;28;20227;-77
2022/08/04 09:41:48;;;;;;;5.57;1.38;;;30.80;52.50;;;;;;5004545;28;20201;-74
2022/08/04 09:44:31;;;;;;;2.40;1.40;;;30.80;52.10;;;;;;5004284;28;20710;-76
2022/08/04 09:47:26;;;;;;;6.63;1.45;;;30.90;51.60;;;;;;5005439;28;20200;-76
2022/08/04 09:50:21;;;;;;;3.28;1.80;;;30.90;51.40;;;;;;5015773;28;20195;-77
2022/08/04 09:52:58;;;;;;;4.95;1.58;;;30.90;51.40;;;;;;5004527;28;20481;-77
2022/08/04 09:55:41;;;;;;;2.28;1.35;;;31.00;51.30;;;;;;5001566;28;20199;-77
2022/08/04 09:58:39;;;;;;;3.35;1.58;;;31.10;51.00;;;;;;5009051;28;20200;-76
2022/08/04 10:01:15;;;;;;;6.10;1.50;;;31.10;50.40;;;;;;4996972;28;20204;-78
2022/08/04 10:03:53;;;;;;;2.83;1.60;;;31.10;50.20;;;;;;5010254;28;20761;-77
2022/08/04 10:06:58;;;;;;;1.75;1.42;;;31.20;50.30;;;;;;5006180;28;20847;-77
2022/08/04 10:09:43;;;;;;;1.50;1.17;;;31.20;50.20;;;;;;4994979;28;20197;-75
2022/08/04 10:12:26;;;;;;;1.70;1.20;;;31.20;50.20;;;;;;5006457;28;20216;-77
2022/08/04 10:15:09;;;;;;;2.33;1.40;;;31.30;50.00;;;;;;5006934;28;20189;-77
2022/08/04 10:18:03;;;;;;;2.75;1.30;;;31.30;49.50;;;;;;5014939;28;20192;-77
2022/08/04 10:20:48;;;;;;;1.83;1.50;;;31.40;48.90;;;;;;5006301;28;20192;-76
2022/08/04 10:23:34;;;;;;;1.70;1.23;;;31.50;49.10;;;;;;4999629;28;20185;-76
2022/08/04 10:26:31;;;;;;;2.25;1.63;;;31.50;49.20;;;;;;5007701;28;20615;-75
2022/08/04 10:29:05;;;;;;;3.22;1.40;;;31.60;48.90;;;;;;5006993;28;20286;-77
2022/08/04 10:31:39;;;;;;;2.67;1.48;;;31.60;48.50;;;;;;4996188;28;20195;-78
2022/08/04 10:34:15;;;;;;;2.53;1.52;;;31.70;48.00;;;;;;5008527;28;20238;-76
2022/08/04 10:36:53;;;;;;;2.60;1.40;;;31.70;47.60;;;;;;5007035;28;20223;-76
2022/08/04 10:39:29;;;;;;;5.65;1.60;;;31.70;47.30;;;;;;5016922;28;20227;-77
2022/08/04 10:42:22;;;;;;;10.98;2.08;;;31.80;47.30;;;;;;5027724;28;20196;-76
2022/08/04 10:45:05;;;;;;;4.22;1.35;;;31.80;47.60;;;;;;5030759;28;20198;-78
2022/08/04 10:47:38;;;;;;;1.30;1.13;;;31.90;47.80;;;;;;5041583;28;20195;-78
2022/08/04 10:50:10;;;;;;;4.57;1.67;;;32.00;48.10;;;;;;5033374;28;20210;-78
2022/08/04 10:52:46;;;;;;;1.75;1.30;;;32.10;48.10;;;;;;5032227;28;20211;-76
2022/08/04 10:55:21;;;;;;;3.28;1.50;;;32.10;47.80;;;;;;5028218;28;20190;-78
2022/08/04 10:58:16;;;;;;;1.88;1.67;;;32.10;47.70;;;;;;5026059;28;20411;-75
2022/08/04 11:00:47;;;;;;;3.58;1.48;;;32.20;47.00;;;;;;5034410;28;20199;-77
2022/08/04 11:03:25;;;;;;;2.17;1.20;;;32.30;47.20;;;;;;5038634;28;20191;-78
2022/08/04 11:05:56;;;;;;;4.60;1.40;;;32.30;47.10;;;;;;5011509;28;20662;-76
2022/08/04 11:08:30;;;;;;;2.20;1.30;;;32.30;46.50;;;;;;5023977;28;20202;-77
2022/08/04 11:11:02;;;;;;;2.10;1.63;;;32.40;46.30;;;;;;5027990;28;20192;-76
2022/08/04 11:13:38;;;;;;;8.18;2.92;;;32.50;46.10;;;;;;5036936;28;20959;-77
2022/08/04 11:16:18;;;;;;;2.28;1.58;;;32.50;45.80;;;;;;5024802;28;20261;-77
2022/08/04 11:18:53;;;;;;;2.30;1.35;;;32.50;46.10;;;;;;5035280;28;20190;-76
2022/08/04 11:21:32;;;;;;;2.28;1.30;;;32.60;46.30;;;;;;5026279;28;20195;-77
2022/08/04 11:24:03;;;;;;;3.40;1.70;;;32.70;45.80;;;;;;5025807;28;20188;-77
2022/08/04 11:26:41;;;;;;;1.70;1.38;;;32.70;45.90;;;;;;5028496;28;21327;-78
2022/08/04 11:29:17;;;;;;;3.22;1.70;;;32.80;46.00;;;;;;5033889;28;20192;-77
2022/08/04 11:31:49;;;;;;;3.42;1.30;;;32.90;45.50;;;;;;5035872;28;20191;-79
2022/08/04 11:34:22;;;;;;;3.60;1.70;;;32.90;45.80;;;;;;5024769;28;20218;-77
2022/08/04 11:37:00;;;;;;;2.92;1.70;;;32.90;45.30;;;;;;5025634;28;20665;-79
2022/08/04 11:39:33;;;;;;;1.67;1.27;;;33.00;45.40;;;;;;5014693;28;20216;-77
2022/08/04 11:42:10;;;;;;;6.35;1.80;;;33.00;45.50;;;;;;5010335;28;20227;-78
2022/08/04 11:44:47;;;;;;;6.47;1.60;;;33.10;45.50;;;;;;5010633;28;20202;-79
2022/08/04 11:47:24;;;;;;;5.25;1.60;;;33.10;45.80;;;;;;5004729;28;20596;-77
2022/08/04 11:49:59;;;;;;;4.15;1.70;;;33.10;45.10;;;;;;5005910;28;20207;-75
2022/08/04 11:52:30;;;;;;;2.13;1.75;;;33.10;45.10;;;;;;5004762;28;20202;-79
2022/08/04 11:55:03;;;;;;;5.00;1.83;;;33.20;45.50;;;;;;5004993;28;20192;-78
2022/08/04 11:57:32;;;;;;;3.88;1.35;;;33.20;45.00;;;;;;5014539;28;20200;-78
2022/08/04 12:00:08;;;;;;;4.32;1.50;;;33.30;45.20;;;;;;5006336;28;20219;-77
2022/08/04 12:03:11;;;;;;;2.20;1.48;;;33.30;45.10;;;;;;5006159;28;20192;-78
2022/08/04 12:05:49;;;;;;;2.22;1.60;;;33.30;45.30;;;;;;5010316;28;20220;-78
2022/08/04 12:08:33;;;;;;;3.42;1.52;;;33.30;45.60;;;;;;5000024;28;20203;-78
2022/08/04 12:11:13;;;;;;;2.97;1.58;;;33.20;45.60;;;;;;5008463;28;20249;-78
2022/08/04 12:13:48;;;;;;;3.22;1.88;;;33.20;45.60;;;;;;5014426;28;20801;-78
2022/08/04 12:16:22;;;;;;;2.35;1.40;;;33.20;45.70;;;;;;5009942;28;20271;-78
2022/08/04 12:18:59;;;;;;;2.40;1.50;;;33.20;45.80;;;;;;4997989;28;20743;-77
2022/08/04 12:21:35;;;;;;;2.42;1.55;;;33.20;46.00;;;;;;5001204;28;20704;-77
2022/08/04 12:24:14;;;;;;;4.60;1.52;;;33.20;45.50;;;;;;5012251;28;20711;-78
2022/08/04 12:26:48;;;;;;;2.80;1.42;;;33.20;45.70;;;;;;5002288;28;20199;-78
2022/08/04 12:29:18;;;;;;;2.40;1.50;;;33.20;45.70;;;;;;5011790;28;20187;-77
2022/08/04 12:31:52;;;;;;;2.53;1.40;;;33.20;45.80;;;;;;5004477;28;20286;-77
2022/08/04 12:34:30;;;;;;;7.03;1.40;;;33.10;45.90;;;;;;5009049;28;20287;-78
2022/08/04 12:37:04;;;;;;;3.63;1.50;;;33.10;46.00;;;;;;5003073;28;20211;-78
2022/08/04 12:39:38;;;;;;;1.70;1.60;;;33.10;46.00;;;;;;5012864;28;20839;-77
2022/08/04 12:42:33;;;;;;;2.38;1.70;;;33.00;46.20;;;;;;5007799;28;20237;-78
2022/08/04 12:45:07;;;;;;;2.85;1.60;;;32.90;46.00;;;;;;5011259;28;20183;-79
2022/08/04 12:47:36;;;;;;;3.45;1.50;;;33.00;45.80;;;;;;5016007;28;20654;-78
2022/08/04 12:50:07;;;;;;;2.97;1.73;;;33.00;45.90;;;;;;4990678;28;20283;-78
2022/08/04 12:52:43;;;;;;;5.10;1.65;;;33.00;46.20;;;;;;5008640;28;20631;-78
2022/08/04 12:55:35;;;;;;;2.33;1.30;;;33.00;46.40;;;;;;5020806;28;20199;-78
2022/08/04 12:58:14;;;;;;;3.42;1.13;;;33.00;46.40;;;;;;5008480;28;20941;-79
2022/08/04 13:01:08;;;;;;;2.85;1.65;;;32.90;46.30;;;;;;5006743;28;20259;-77
2022/08/04 13:04:00;;;;;;;4.32;1.67;;;32.90;46.30;;;;;;5001127;28;20800;-78
2022/08/04 13:06:31;;;;;;;2.50;1.58;;;32.90;46.10;;;;;;5004608;28;20207;-78
2022/08/04 13:09:05;;;;;;;3.65;1.50;;;32.80;45.90;;;;;;5004931;28;20603;-79
2022/08/04 13:11:42;;;;;;;5.18;1.92;;;32.80;46.00;;;;;;5004267;28;20191;-77
2022/08/04 13:14:13;;;;;;;5.53;1.75;;;32.90;46.00;;;;;;5008671;28;20227;-78
2022/08/04 13:16:58;;;;;;;2.85;1.30;;;32.90;46.00;;;;;;5007397;28;20287;-78
2022/08/04 13:19:27;;;;;;;4.55;1.65;;;32.90;46.00;;;;;;5009871;28;20202;-78
2022/08/04 13:21:58;;;;;;;5.75;1.60;;;33.10;45.70;;;;;;5008071;28;20195;-78
2022/08/04 13:24:32;;;;;;;4.18;1.70;;;33.10;45.70;;;;;;5015859;28;20198;-78
2022/08/04 13:27:23;;;;;;;3.47;1.50;;;33.20;45.70;;;;;;5008119;28;20874;-77
2022/08/04 13:29:55;;;;;;;2.30;1.42;;;33.30;45.60;;;;;;5011883;28;20196;-76
2022/08/04 13:32:44;;;;;;;3.20;1.20;;;33.30;45.70;;;;;;5005378;28;20473;-77
2022/08/04 13:35:14;;;;;;;2.00;1.60;;;33.40;46.30;;;;;;5010691;28;20231;-78
2022/08/04 13:37:43;;;;;;;2.95;1.60;;;33.40;45.60;;;;;;5012029;28;20462;-78
2022/08/04 13:40:15;;;;;;;3.28;1.50;;;33.30;45.40;;;;;;5005354;28;20933;-78
2022/08/04 13:42:51;;;;;;;2.38;1.55;;;33.30;45.50;;;;;;5020828;28;20191;-77
2022/08/04 13:45:21;;;;;;;2.83;1.73;;;33.30;45.70;;;;;;5010036;28;20199;-77
2022/08/04 13:48:04;;;;;;;3.90;1.67;;;33.30;45.80;;;;;;5008924;28;20196;-76
2022/08/04 13:50:53;;;;;;;2.40;1.45;;;33.30;45.80;;;;;;4995007;28;20211;-77
2022/08/04 13:53:22;;;;;;;2.40;1.63;;;33.30;45.70;;;;;;5011390;28;20193;-78
2022/08/04 13:55:59;;;;;;;1.88;1.40;;;33.20;45.40;;;;;;5007840;28;20677;-77